Tunica, Mississippi
Current Conditions -  °F | °C
As of 2:15 AM on Sunday 26 Oct 2014 (Local Time) from KUTA Reporting Station
Haze Haze  
Wind Chill: 61°   Ceiling: NA
Heat Index: 61°   Visibility: 3mi
Dew Point: 59°   Wind: 3mph
Humidity: 94%   Direction: 170°S
Pressure: 30.02"   Gusts: NA
Location:  34.68°N, 90.38°W
Report Text: KUTA 260715Z AUTO 17003KT 3SM BR 16/15 A3002 RMK AO2 SKY OBSCURED
Loading
Personal Weather Stations






























Interactive Weather Map
Tropical Storm Tracking
New forecast layout! Learn more

10-Day Weather Forecast

Advertisements
Track Severe Weather on mobile